KONA

Winona Municipal-Max Conrad Field Airport

Winona, Minnesota, USA
METAR KONA 252216Z AUTO 11006KT 10SM SCT055 BKN070 BKN080 21/18 A2975 RMK AO2 P0002 LTG DSNT ALQS
Observed Flight Rules
May-25 @ 22:16 UTC (21 minutes ago) Visual Flight Rules
Wind Visibility Clouds
110° at 6 knots 10 miles
  • Scattered at 5,500' AGL
  • Broken at 7,000' AGL
  • Broken at 8,000' AGL
Temperatures Readings Precipitation
Current 21°C / 70°F
Dewpoint 18°C / 64°F
Humidity 83%
Altimeter 29.75" Hg
Pressure 1007 hPa
Elevation 200
Current Rain 0.02
METAR KONA 252216Z AUTO 11006KT 10SM SCT055 BKN070 BKN080 21/18 A2975 RMK AO2 P0002 LTG DSNT ALQS
Observed Flight Rules
May-25 @ 22:16 UTC
(21 minutes ago)
VFR
Wind Visibility
110° at 6 knots 10 miles
Clouds
  • Scattered at 5,500' AGL
  • Broken at 7,000' AGL
  • Broken at 8,000' AGL
Temperature Dewpoint
21°C / 70°F 18°C / 64°F
Humidity Altimeter Pressure
83% 29.75" Hg 1007 hPa
Current Rain
0.02